Ibra, Oman
Current Conditions -  °F | °C
As of 12:50 PM on Thursday 18 Dec 2014 (Local Time) from OOMS Reporting Station
Few Clouds Few Clouds  
Wind Chill: 25°   Ceiling: Unl
Heat Index: 26°   Visibility: 6mi
Dew Point: 17°   Wind: 7mph
Humidity: 61%   Direction: 350°N
Pressure: 30.09"   Gusts: NA
Location:  22.72°N, 58.53°E
Report Text: OOMS 180850Z 35006KT 320V030 9999 FEW025 25/17 Q1019 NOSIG
Loading
Personal Weather Stations






























Interactive Weather Map New forecast layout! Learn more

10-Day Weather Forecast

Advertisements
Track Severe Weather on mobile